Time;durP1;ratioP1;P1;durP2;ratioP2;P2;SDS_P1;SDS_P2;PMS_P1;PMS_P2;Temp;Humidity;BMP_temperature;BMP_pressure;BME280_temperature;BME280_humidity;BME280_pressure;Samples;Min_cycle;Max_cycle;Signal;HPM_P1;HPM_P2
2022/06/08 00:00:50;;;;;;;8.85;4.10;;;;;;;19.55;55.72;100125.19;1780043;80;21039;-63
2022/06/08 00:03:25;;;;;;;7.90;4.12;;;;;;;19.47;55.75;100125.05;1779875;80;21016;-64
2022/06/08 00:05:55;;;;;;;6.55;4.42;;;;;;;19.39;55.76;100131.08;1685133;85;21505;-61
2022/06/08 00:08:25;;;;;;;6.67;4.62;;;;;;;19.32;55.93;100128.52;1684862;85;21051;-64
2022/06/08 00:10:54;;;;;;;5.10;4.25;;;;;;;19.31;56.09;100122.67;1684885;85;21050;-64
2022/06/08 00:13:24;;;;;;;7.47;4.45;;;;;;;19.30;56.16;100126.55;1684969;85;21135;-64
2022/06/08 00:15:57;;;;;;;6.20;4.55;;;;;;;19.29;56.29;100122.64;1685033;85;21483;-64
2022/06/08 00:18:27;;;;;;;6.58;4.10;;;;;;;19.26;56.34;100124.00;1684797;85;21054;-63
2022/06/08 00:20:56;;;;;;;5.67;4.00;;;;;;;19.25;56.31;100132.05;1685174;85;21119;-64
2022/06/08 00:23:25;;;;;;;5.08;3.87;;;;;;;19.23;56.25;100118.97;1684952;85;21079;-64
2022/06/08 00:25:55;;;;;;;5.55;3.85;;;;;;;19.22;56.22;100119.23;1684940;85;21070;-64
2022/06/08 00:28:26;;;;;;;6.22;3.62;;;;;;;19.19;56.15;100123.92;1685077;85;21043;-64
2022/06/08 00:30:56;;;;;;;4.92;3.70;;;;;;;19.15;56.24;100122.22;1747875;80;21047;-63
2022/06/08 00:33:25;;;;;;;6.10;3.75;;;;;;;19.15;56.46;100129.16;1779825;80;21019;-65
2022/06/08 00:35:54;;;;;;;7.08;4.10;;;;;;;19.11;56.98;100122.45;1779894;80;20984;-63
2022/06/08 00:38:24;;;;;;;4.80;3.62;;;;;;;19.06;57.24;100125.17;1779852;80;21463;-63
2022/06/08 00:41:04;;;;;;;4.22;3.10;;;;;;;19.05;57.01;100118.48;1749713;80;21415;-64
2022/06/08 00:43:33;;;;;;;5.45;3.80;;;;;;;19.05;56.85;100126.81;1779895;80;21044;-63
2022/06/08 00:46:03;;;;;;;8.68;3.60;;;;;;;19.03;56.79;100114.58;1779909;80;21031;-63
2022/06/08 00:48:34;;;;;;;5.55;3.58;;;;;;;19.01;57.06;100118.17;1779814;80;21500;-63
2022/06/08 00:51:04;;;;;;;4.47;3.60;;;;;;;18.99;56.98;100112.03;1760711;80;21071;-63
2022/06/08 00:53:38;;;;;;;4.70;3.60;;;;;;;19.00;56.96;100113.16;1782561;80;21553;-63
2022/06/08 00:56:10;;;;;;;7.42;3.50;;;;;;;19.00;57.03;100112.33;1782971;80;21448;-64
2022/06/08 00:58:39;;;;;;;5.15;3.67;;;;;;;18.99;57.35;100109.26;1782533;80;21011;-63
2022/06/08 01:01:08;;;;;;;7.03;3.37;;;;;;;18.96;57.66;100109.78;1782856;80;21063;-63
2022/06/08 01:03:39;;;;;;;6.33;3.67;;;;;;;18.94;57.75;100111.98;1782660;80;21003;-63
2022/06/08 01:06:14;;;;;;;5.03;3.80;;;;;;;18.89;57.74;100112.76;1782818;80;20976;-63
2022/06/08 01:08:50;;;;;;;6.37;4.10;;;;;;;18.88;57.78;100113.02;1782559;80;21436;-64
2022/06/08 01:11:40;;;;;;;5.10;3.90;;;;;;;18.88;57.75;100106.91;1783095;80;21047;-63
2022/06/08 01:14:17;;;;;;;6.30;3.70;;;;;;;18.87;57.80;100112.73;1782724;80;21720;-63
2022/06/08 01:17:06;;;;;;;6.55;3.77;;;;;;;18.84;57.91;100104.34;1782678;80;21541;-63
2022/06/08 01:19:38;;;;;;;5.25;3.87;;;;;;;18.82;57.97;100107.92;1782876;80;21028;-63
2022/06/08 01:22:08;;;;;;;5.80;3.92;;;;;;;18.79;58.06;100103.44;1763386;80;21064;-64
2022/06/08 01:24:47;;;;;;;6.90;4.22;;;;;;;18.76;58.23;100106.17;1754873;80;21024;-63
2022/06/08 01:28:05;;;;;;;5.37;3.90;;;;;;;18.70;58.40;100105.83;1782788;80;20972;-63
2022/06/08 01:30:59;;;;;;;6.72;3.80;;;;;;;18.66;58.48;100108.28;1782687;80;21004;-62
2022/06/08 01:33:52;;;;;;;6.85;3.55;;;;;;;18.64;58.61;100113.25;1782646;80;21032;-64
2022/06/08 01:36:41;;;;;;;6.58;3.58;;;;;;;18.58;58.77;100114.80;1782227;80;21058;-63
2022/06/08 01:39:24;;;;;;;6.37;3.75;;;;;;;18.56;58.95;100108.11;1782792;80;21059;-64
2022/06/08 01:42:10;;;;;;;4.92;3.90;;;;;;;18.53;59.03;100101.69;1782487;80;21032;-63
2022/06/08 01:48:04;;;;;;;5.90;3.60;;;;;;;18.53;59.37;100108.63;1782709;80;21513;-64
2022/06/08 01:51:01;;;;;;;6.95;3.27;;;;;;;18.53;59.40;100107.24;1799295;79;21050;-63
2022/06/08 01:54:09;;;;;;;11.03;4.00;;;;;;;18.47;59.56;100106.88;1814573;79;21474;-62
2022/06/08 01:56:49;;;;;;;5.62;3.80;;;;;;;18.43;59.68;100112.66;1814699;79;21007;-63
2022/06/08 01:59:29;;;;;;;6.12;3.37;;;;;;;18.39;59.79;100110.10;1745503;82;21038;-64
2022/06/08 02:02:25;;;;;;;5.62;3.65;;;;;;;18.36;59.93;100105.91;1742045;82;21059;-64
2022/06/08 02:05:09;;;;;;;4.25;3.58;;;;;;;18.31;60.16;100107.22;1814699;79;21051;-63
2022/06/08 02:07:49;;;;;;;6.37;3.70;;;;;;;18.22;60.52;100109.30;1814513;79;21007;-63
2022/06/08 02:10:56;;;;;;;5.55;3.72;;;;;;;18.11;60.88;100108.28;1745466;82;21020;-63
2022/06/08 02:13:52;;;;;;;8.50;3.90;;;;;;;18.05;61.16;100107.36;1814662;79;21035;-63
2022/06/08 02:16:34;;;;;;;9.05;4.12;;;;;;;18.00;61.44;100111.44;1745478;82;21045;-63
2022/06/08 02:19:18;;;;;;;7.03;3.50;;;;;;;17.97;61.66;100113.34;1783219;79;21050;-63
2022/06/08 02:21:51;;;;;;;6.25;3.35;;;;;;;17.98;61.81;100111.41;1745307;82;21043;-63
2022/06/08 02:24:27;;;;;;;5.90;3.58;;;;;;;17.97;61.88;100113.88;1814741;79;20980;-64
2022/06/08 02:27:04;;;;;;;8.93;3.98;;;;;;;17.97;61.99;100117.49;1745418;82;20988;-64
2022/06/08 02:29:42;;;;;;;5.33;3.72;;;;;;;18.00;62.02;100114.22;1814850;79;20984;-63
2022/06/08 02:35:06;;;;;;;6.35;3.95;;;;;;;18.11;61.87;100115.76;1814590;79;21082;-64
2022/06/08 02:37:35;;;;;;;7.55;4.03;;;;;;;18.13;61.83;100112.19;1745044;82;21063;-64
2022/06/08 02:40:25;;;;;;;4.72;3.50;;;;;;;18.14;61.82;100113.31;1814452;79;21011;-64
2022/06/08 02:42:59;;;;;;;6.22;3.70;;;;;;;18.14;61.81;100111.93;1814338;79;21481;-63
2022/06/08 02:45:37;;;;;;;5.53;4.12;;;;;;;18.20;61.50;100119.78;1814596;79;21043;-63
2022/06/08 02:48:09;;;;;;;11.50;4.25;;;;;;;18.26;61.38;100126.56;1745417;82;21471;-65
2022/06/08 02:50:51;;;;;;;10.50;4.15;;;;;;;18.31;61.21;100115.55;1811090;79;21087;-63
2022/06/08 02:53:31;;;;;;;5.72;3.80;;;;;;;18.37;61.03;100126.16;1737369;82;20992;-63
2022/06/08 02:56:34;;;;;;;5.22;3.65;;;;;;;18.43;60.74;100127.91;1805972;79;21035;-63
2022/06/08 02:59:21;;;;;;;8.20;4.10;;;;;;;18.47;60.46;100124.91;1806040;79;21028;-64
2022/06/08 03:02:20;;;;;;;5.35;3.50;;;;;;;18.54;60.24;100134.44;1737527;82;20992;-63
2022/06/08 03:05:31;;;;;;;8.88;3.87;;;;;;;18.60;60.06;100127.86;1806030;79;21051;-64
2022/06/08 03:08:07;;;;;;;6.90;4.10;;;;;;;18.66;59.95;100131.03;1806332;79;21008;-64
2022/06/08 03:10:39;;;;;;;5.62;4.03;;;;;;;18.73;59.65;100126.13;1718142;82;21510;-62
2022/06/08 03:13:33;;;;;;;6.53;4.12;;;;;;;18.79;59.44;100129.80;1806064;79;21059;-62
2022/06/08 03:16:06;;;;;;;6.65;4.37;;;;;;;18.83;59.28;100126.80;1737476;82;21020;-63
2022/06/08 03:18:35;;;;;;;7.80;4.37;;;;;;;18.89;59.17;100128.02;1805876;79;21087;-63
2022/06/08 03:21:07;;;;;;;6.45;4.72;;;;;;;18.93;59.08;100123.62;1737398;82;21124;-65
2022/06/08 03:23:37;;;;;;;9.20;4.65;;;;;;;18.96;59.04;100118.95;1806407;79;21448;-64
2022/06/08 03:26:06;;;;;;;8.40;4.60;;;;;;;19.00;58.91;100124.82;1806157;79;21063;-64
2022/06/08 03:28:37;;;;;;;7.35;4.20;;;;;;;19.04;58.97;100123.20;1806389;79;21051;-64
2022/06/08 03:31:08;;;;;;;8.25;4.37;;;;;;;19.07;59.10;100117.12;1737168;82;21458;-64
2022/06/08 03:33:38;;;;;;;6.47;4.05;;;;;;;19.09;59.01;100123.26;1806135;79;21003;-64
2022/06/08 03:36:08;;;;;;;9.85;4.15;;;;;;;19.12;59.05;100119.96;1737640;82;21087;-64
2022/06/08 03:38:36;;;;;;;7.90;3.90;;;;;;;19.14;59.10;100120.54;1806058;79;20988;-64
2022/06/08 03:41:06;;;;;;;5.55;3.50;;;;;;;19.17;59.42;100120.56;1806061;79;21458;-63
2022/06/08 03:43:37;;;;;;;5.67;3.50;;;;;;;19.17;59.62;100120.02;1737468;82;21518;-62
2022/06/08 03:46:07;;;;;;;9.23;3.85;;;;;;;19.14;59.86;100119.15;1806188;79;21486;-63
2022/06/08 03:48:36;;;;;;;7.72;4.22;;;;;;;19.15;59.96;100119.44;1737464;82;21456;-64
2022/06/08 03:51:06;;;;;;;9.60;3.50;;;;;;;19.17;60.45;100120.02;1802658;79;21004;-64
2022/06/08 03:53:39;;;;;;;8.88;3.60;;;;;;;19.19;60.79;100121.14;1798717;80;21071;-63
2022/06/08 03:56:08;;;;;;;7.05;3.02;;;;;;;19.21;60.81;100121.17;1798856;80;21098;-63
2022/06/08 03:58:37;;;;;;;7.15;3.92;;;;;;;19.22;60.43;100122.84;1718521;83;21068;-65
2022/06/08 04:01:08;;;;;;;7.92;3.58;;;;;;;19.26;60.82;100129.55;1798596;80;21028;-63
2022/06/08 04:03:40;;;;;;;6.70;4.03;;;;;;;19.26;61.01;100124.00;1798765;80;21506;-63
2022/06/08 04:06:10;;;;;;;8.83;4.33;;;;;;;19.31;60.63;100125.99;1798827;80;21432;-64
2022/06/08 04:08:39;;;;;;;12.35;4.55;;;;;;;19.38;60.43;100123.00;1798980;80;21504;-63
2022/06/08 04:11:08;;;;;;;10.53;4.45;;;;;;;19.43;60.42;100128.06;1798783;80;21035;-63
2022/06/08 04:13:37;;;;;;;7.65;4.30;;;;;;;19.47;60.31;100125.59;1718407;83;21084;-63
2022/06/08 04:16:10;;;;;;;10.00;4.33;;;;;;;19.53;60.27;100128.78;1798587;80;21040;-65
2022/06/08 04:18:41;;;;;;;9.73;4.30;;;;;;;19.58;60.02;100130.22;1718196;83;21068;-64
2022/06/08 04:21:11;;;;;;;26.68;6.08;;;;;;;19.63;60.04;100125.54;1798550;79;21024;-64
2022/06/08 04:23:43;;;;;;;19.00;5.05;;;;;;;19.70;59.75;100123.94;1718238;83;21639;-63
2022/06/08 04:26:16;;;;;;;9.05;4.80;;;;;;;19.77;59.36;100130.66;1798596;80;21445;-65
2022/06/08 04:28:45;;;;;;;13.78;4.00;;;;;;;19.84;59.28;100127.95;1798478;80;21052;-64
2022/06/08 04:31:18;;;;;;;8.65;3.95;;;;;;;19.94;58.20;100128.58;1798651;80;21091;-64
2022/06/08 04:33:53;;;;;;;6.67;3.60;;;;;;;20.03;57.29;100130.31;1718435;83;21063;-64
2022/06/08 04:36:24;;;;;;;11.90;3.95;;;;;;;20.12;56.03;100128.16;1798310;80;20982;-63
2022/06/08 04:38:55;;;;;;;7.45;3.77;;;;;;;20.24;55.17;100131.61;1798935;80;21027;-65
2022/06/08 04:41:26;;;;;;;7.53;3.47;;;;;;;20.35;54.63;100128.89;1798852;80;21016;-63
2022/06/08 04:43:56;;;;;;;8.28;2.72;;;;;;;20.45;54.06;100128.44;1798690;80;21554;-64
2022/06/08 04:46:26;;;;;;;6.05;3.05;;;;;;;20.56;53.23;100125.99;1798740;80;21432;-64
2022/06/08 04:48:55;;;;;;;7.65;2.85;;;;;;;20.70;52.52;100130.52;1718455;83;21071;-65
2022/06/08 04:51:26;;;;;;;6.58;3.05;;;;;;;20.85;52.16;100132.56;1802075;79;21032;-63
2022/06/08 04:53:57;;;;;;;10.35;3.05;;;;;;;21.03;51.52;100127.05;1806085;79;21004;-64
2022/06/08 04:56:28;;;;;;;5.05;2.85;;;;;;;21.26;50.99;100138.30;1737342;79;21028;-63
2022/06/08 04:58:58;;;;;;;7.53;3.20;;;;;;;21.54;50.34;100133.66;1806031;79;21470;-62
2022/06/08 05:01:29;;;;;;;9.20;3.00;;;;;;;21.86;49.71;100124.20;1737405;82;21099;-64
2022/06/08 05:03:59;;;;;;;7.60;2.95;;;;;;;22.20;48.79;100128.14;1806084;79;21056;-63
2022/06/08 05:06:28;;;;;;;4.85;2.42;;;;;;;22.60;48.15;100133.36;1737449;82;21475;-63
2022/06/08 05:08:57;;;;;;;4.62;2.40;;;;;;;22.99;46.93;100133.55;1805941;79;21039;-63
2022/06/08 05:11:28;;;;;;;6.97;2.98;;;;;;;23.35;45.69;100129.44;1806016;79;21103;-63
2022/06/08 05:13:58;;;;;;;7.72;2.60;;;;;;;23.73;45.01;100137.36;1683383;85;21051;-66
2022/06/08 05:16:29;;;;;;;6.05;3.17;;;;;;;24.13;43.72;100130.05;1689281;85;21061;-63
2022/06/08 05:18:59;;;;;;;5.15;2.10;;;;;;;24.54;42.48;100133.30;1655405;86;21019;-63
2022/06/08 05:21:30;;;;;;;8.13;2.05;;;;;;;24.98;41.12;100125.84;1689177;85;21085;-64
2022/06/08 05:24:01;;;;;;;7.58;2.10;;;;;;;25.34;40.47;100132.63;1654814;86;21055;-63
2022/06/08 05:26:38;;;;;;;5.83;1.77;;;;;;;25.69;39.32;100127.69;1689254;85;21042;-65
2022/06/08 05:29:10;;;;;;;4.53;1.90;;;;;;;26.00;37.98;100128.84;1655837;86;21140;-64
2022/06/08 05:31:39;;;;;;;5.37;1.67;;;;;;;26.28;37.11;100127.55;1706363;82;21522;-65
2022/06/08 05:34:10;;;;;;;5.80;2.27;;;;;;;26.58;36.87;100124.20;1728203;81;21044;-64
2022/06/08 05:36:41;;;;;;;3.08;1.32;;;;;;;26.84;35.98;100123.97;1737277;82;21032;-65
2022/06/08 05:39:13;;;;;;;4.60;1.77;;;;;;;27.13;35.07;100129.29;1805960;79;21074;-64
2022/06/08 05:41:44;;;;;;;6.92;1.95;;;;;;;27.40;34.15;100114.37;1805933;79;21039;-64
2022/06/08 05:44:13;;;;;;;2.95;1.40;;;;;;;27.68;33.00;100116.55;1806128;79;21024;-65
2022/06/08 05:46:43;;;;;;;5.42;1.60;;;;;;;28.12;32.37;100115.48;1716309;82;21452;-64
2022/06/08 05:49:15;;;;;;;5.58;1.50;;;;;;;28.12;32.37;100115.48;1805843;79;21008;-65
2022/06/08 05:51:46;;;;;;;2.67;1.50;;;;;;;28.65;30.85;100119.73;1737366;82;21087;-65
2022/06/08 05:54:17;;;;;;;2.95;1.40;;;;;;;28.65;30.85;100119.73;1805870;79;20992;-64
2022/06/08 05:56:46;;;;;;;6.37;1.80;;;;;;;28.89;30.73;100119.35;1806139;79;20996;-64
2022/06/08 05:59:17;;;;;;;2.08;1.62;;;;;;;29.11;30.19;100115.59;1737602;82;21052;-64
2022/06/08 06:01:46;;;;;;;3.80;1.72;;;;;;;29.27;29.85;100123.30;1806155;79;21501;-64
2022/06/08 06:04:15;;;;;;;4.20;1.70;;;;;;;29.41;29.37;100118.09;1737275;82;21060;-63
2022/06/08 06:06:46;;;;;;;4.20;1.70;;;;;;;29.49;29.49;100115.88;1806423;79;21028;-65
2022/06/08 06:09:18;;;;;;;1.77;1.17;;;;;;;29.65;29.28;100114.23;1737324;82;21020;-65
2022/06/08 06:11:47;;;;;;;6.80;1.57;;;;;;;29.81;28.93;100112.56;1805935;79;21008;-65
2022/06/08 06:14:17;;;;;;;4.53;1.57;;;;;;;29.97;28.75;100108.09;1806020;79;21041;-64
2022/06/08 06:16:48;;;;;;;1.95;1.25;;;;;;;30.11;28.14;100108.52;1737533;82;21412;-65
2022/06/08 06:19:20;;;;;;;4.72;1.80;;;;;;;30.19;28.06;100109.08;1805738;79;21411;-65
2022/06/08 06:21:55;;;;;;;2.65;1.20;;;;;;;30.30;27.82;100117.45;1735251;82;21472;-65
2022/06/08 06:24:38;;;;;;;9.88;1.40;;;;;;;30.42;27.80;100111.92;1805948;79;21043;-65
2022/06/08 06:27:07;;;;;;;8.13;1.40;;;;;;;30.54;27.33;100102.73;1736948;82;21043;-64
2022/06/08 06:29:56;;;;;;;3.67;1.42;;;;;;;30.64;27.44;100103.00;1806017;79;21056;-66
2022/06/08 06:32:30;;;;;;;2.20;1.17;;;;;;;30.84;26.74;100098.83;1735613;82;21028;-65
2022/06/08 06:34:59;;;;;;;10.93;2.60;;;;;;;30.95;26.18;100103.52;1805978;79;21039;-64
2022/06/08 06:37:29;;;;;;;3.20;1.30;;;;;;;31.01;25.67;100101.32;1806477;79;21008;-65
2022/06/08 06:40:02;;;;;;;5.53;1.90;;;;;;;31.07;26.18;100092.88;1737469;82;21448;-64
2022/06/08 06:42:33;;;;;;;7.15;1.70;;;;;;;31.19;26.12;100097.23;1806025;79;21000;-65
2022/06/08 06:45:22;;;;;;;5.00;1.70;;;;;;;31.28;26.15;100103.70;1725683;82;21067;-65
2022/06/08 06:47:55;;;;;;;3.55;1.47;;;;;;;31.30;25.97;100097.11;1678219;85;21096;-64
2022/06/08 06:50:25;;;;;;;4.70;1.65;;;;;;;31.26;26.12;100096.73;1745633;82;21075;-65
2022/06/08 06:53:01;;;;;;;5.42;1.50;;;;;;;31.23;26.15;100097.41;1730929;82;21171;-65
2022/06/08 06:55:35;;;;;;;2.15;1.57;;;;;;;31.19;26.43;100095.83;1651672;87;21471;-65
2022/06/08 06:58:12;;;;;;;3.80;1.90;;;;;;;31.13;26.37;100096.58;1727979;83;21025;-65
2022/06/08 07:00:42;;;;;;;1.85;1.30;;;;;;;31.18;26.14;100095.58;1651774;87;21087;-65
2022/06/08 07:03:14;;;;;;;5.30;2.30;;;;;;;31.24;25.98;100099.07;1756955;79;21012;-64
2022/06/08 07:05:47;;;;;;;3.10;1.57;;;;;;;31.37;25.85;100095.15;1804024;79;21039;-64
2022/06/08 07:08:16;;;;;;;4.53;1.40;;;;;;;31.53;25.25;100099.02;1804223;79;21008;-65
2022/06/08 07:13:37;;;;;;;14.13;1.90;;;;;;;31.61;25.47;100099.53;1738367;82;21475;-65
2022/06/08 07:16:08;;;;;;;3.77;1.40;;;;;;;31.84;25.21;100095.19;1714709;82;21110;-66
2022/06/08 07:18:38;;;;;;;5.05;2.20;;;;;;;31.94;24.93;100093.96;1738298;82;21562;-63
2022/06/08 07:21:08;;;;;;;5.58;2.50;;;;;;;31.95;25.03;100089.95;1738542;82;21063;-64
2022/06/08 07:23:37;;;;;;;2.17;1.40;;;;;;;31.97;24.92;100088.19;1738387;82;21566;-65
2022/06/08 07:26:06;;;;;;;3.52;1.85;;;;;;;32.09;24.67;100096.14;1738405;82;21135;-64
2022/06/08 07:28:35;;;;;;;4.58;1.82;;;;;;;32.15;24.86;100089.07;1738341;82;21071;-65
2022/06/08 07:31:04;;;;;;;2.77;1.50;;;;;;;32.24;25.00;100097.52;1738687;82;21075;-65
2022/06/08 07:33:34;;;;;;;4.42;1.55;;;;;;;32.36;25.10;100090.45;1738489;82;21463;-64
2022/06/08 07:36:04;;;;;;;5.50;1.45;;;;;;;32.40;24.95;100096.25;1788213;79;21043;-66
2022/06/08 07:38:33;;;;;;;5.00;1.65;;;;;;;32.37;25.05;100092.11;1803955;79;21035;-66
2022/06/08 07:41:03;;;;;;;4.97;1.52;;;;;;;32.37;25.00;100097.78;1804097;79;20972;-65
2022/06/08 07:43:32;;;;;;;6.05;1.65;;;;;;;32.26;25.06;100090.07;1733157;83;21075;-65
2022/06/08 07:46:02;;;;;;;2.50;1.50;;;;;;;32.03;25.66;100089.62;1733150;83;21031;-68
2022/06/08 07:51:20;;;;;;;2.00;1.40;;;;;;;32.16;25.14;100080.80;1722206;82;21426;-66
2022/06/08 07:53:49;;;;;;;4.30;1.30;;;;;;;32.32;25.02;100088.67;1737532;82;21047;-62
2022/06/08 07:56:19;;;;;;;3.92;1.40;;;;;;;32.57;24.35;100083.89;1721284;82;21078;-63
2022/06/08 07:58:49;;;;;;;3.15;1.70;;;;;;;32.83;23.97;100092.09;1720993;82;21103;-64
2022/06/08 08:01:20;;;;;;;3.02;1.65;;;;;;;32.92;22.98;100092.80;1750757;81;21444;-63
2022/06/08 08:03:50;;;;;;;3.17;1.35;;;;;;;32.72;23.64;100086.86;1720866;83;21068;-63
2022/06/08 08:06:20;;;;;;;1.85;1.40;;;;;;;32.81;23.70;100087.37;1733827;83;21012;-67
2022/06/08 08:08:48;;;;;;;3.87;1.77;;;;;;;32.93;23.81;100085.36;1734362;82;21016;-65
2022/06/08 08:11:19;;;;;;;7.20;3.22;;;;;;;33.07;22.53;100087.83;1762890;81;21075;-71
2022/06/08 08:13:49;;;;;;;7.87;3.50;;;;;;;32.96;23.05;100092.33;1751257;82;21066;-65
2022/06/08 08:16:19;;;;;;;4.95;2.05;;;;;;;33.05;22.88;100096.70;1762503;81;21481;-68
2022/06/08 08:18:48;;;;;;;3.33;2.05;;;;;;;33.10;23.01;100102.73;1750918;82;21067;-68
2022/06/08 08:21:17;;;;;;;6.50;1.70;;;;;;;33.01;22.71;100086.41;1762833;81;21074;-63
2022/06/08 08:23:46;;;;;;;5.08;1.70;;;;;;;32.78;23.17;100088.91;1751329;82;21471;-62
2022/06/08 08:26:16;;;;;;;4.72;2.80;;;;;;;32.76;23.47;100082.72;1757059;81;21018;-62
2022/06/08 08:28:46;;;;;;;5.10;2.30;;;;;;;32.74;23.61;100090.17;1732211;83;21122;-63
2022/06/08 08:31:15;;;;;;;5.42;1.82;;;;;;;32.90;23.92;100082.40;1751161;82;21633;-62
2022/06/08 08:33:44;;;;;;;2.15;1.35;;;;;;;33.12;23.40;100085.34;1721112;83;21031;-63
2022/06/08 08:36:13;;;;;;;2.65;1.30;;;;;;;33.30;23.22;100088.21;1750718;82;21486;-62
2022/06/08 08:38:42;;;;;;;3.92;1.40;;;;;;;33.56;22.79;100087.20;1720733;83;21043;-67
2022/06/08 08:44:06;;;;;;;5.85;1.80;;;;;;;33.92;21.40;100077.77;1720734;83;21031;-63
2022/06/08 08:46:50;;;;;;;4.12;1.80;;;;;;;33.97;20.96;100078.09;1750897;82;21182;-62
2022/06/08 08:49:20;;;;;;;5.33;1.80;;;;;;;33.88;21.78;100075.41;1750453;82;21079;-62
2022/06/08 08:51:59;;;;;;;4.37;1.67;;;;;;;33.84;22.27;100077.92;1715537;83;21090;-62
2022/06/08 08:54:38;;;;;;;7.03;1.95;;;;;;;33.91;21.71;100069.59;1748694;82;21090;-62
2022/06/08 08:57:38;;;;;;;5.90;2.60;;;;;;;33.84;20.85;100077.92;1748666;82;21127;-63
2022/06/08 09:00:15;;;;;;;4.37;1.92;;;;;;;33.75;21.40;100076.59;1748855;82;21059;-63
2022/06/08 09:05:34;;;;;;;1.80;1.45;;;;;;;33.07;21.79;100070.20;1751733;82;21083;-63
2022/06/08 09:08:08;;;;;;;2.83;2.00;;;;;;;32.58;22.58;100065.69;1751474;81;21408;-63
2022/06/08 09:10:38;;;;;;;2.40;1.57;;;;;;;32.41;23.11;100063.28;1732925;82;21051;-62
2022/06/08 09:13:09;;;;;;;3.47;1.80;;;;;;;32.34;23.05;100063.03;1751436;82;21533;-62
2022/06/08 09:15:59;;;;;;;1.67;1.47;;;;;;;32.25;23.38;100069.39;1751379;82;21042;-63
2022/06/08 09:18:39;;;;;;;3.98;1.52;;;;;;;32.04;23.42;100058.68;1751392;81;21043;-63
2022/06/08 09:21:31;;;;;;;7.55;1.70;;;;;;;31.82;23.69;100052.20;1751423;82;21534;-63
2022/06/08 09:24:09;;;;;;;5.25;2.00;;;;;;;31.82;23.54;100056.45;1747455;82;21463;-63
2022/06/08 09:26:40;;;;;;;4.70;2.67;;;;;;;31.82;23.69;100055.04;1750753;82;21006;-62
2022/06/08 09:29:20;;;;;;;3.65;2.08;;;;;;;31.85;23.19;100057.17;1748944;81;21037;-62
2022/06/08 09:31:52;;;;;;;2.30;1.70;;;;;;;31.74;23.48;100051.70;1749312;81;21053;-62
2022/06/08 09:34:28;;;;;;;5.15;1.90;;;;;;;31.57;23.40;100053.83;1749004;82;21010;-62
2022/06/08 09:37:26;;;;;;;4.65;1.80;;;;;;;31.38;23.74;100048.08;1749077;81;21072;-62
2022/06/08 09:39:59;;;;;;;2.77;1.62;;;;;;;31.33;24.00;100046.05;1747535;82;21046;-62
2022/06/08 09:42:41;;;;;;;3.27;1.90;;;;;;;31.34;24.15;100047.70;1748898;81;21069;-62
2022/06/08 09:45:37;;;;;;;5.25;2.90;;;;;;;31.36;24.07;100036.27;1749197;82;21037;-63
2022/06/08 09:51:52;;;;;;;1.82;1.60;;;;;;;31.36;24.05;100039.10;1680692;85;22025;-63
2022/06/08 09:54:50;;;;;;;2.95;1.75;;;;;;;31.27;24.45;100044.00;1728543;82;21039;-63
2022/06/08 09:58:11;;;;;;;4.17;1.77;;;;;;;31.26;24.35;100041.52;1730368;82;21508;-62
2022/06/08 10:00:48;;;;;;;5.75;2.10;;;;;;;31.11;24.29;100038.66;1725252;82;21201;-62
2022/06/08 10:03:28;;;;;;;8.40;2.00;;;;;;;31.07;24.65;100034.85;1746204;82;21085;-62
2022/06/08 10:06:46;;;;;;;3.17;1.80;;;;;;;31.04;24.22;100037.78;1771983;79;21038;-62
2022/06/08 10:09:45;;;;;;;4.65;2.00;;;;;;;31.03;24.39;100031.88;1751172;82;21023;-62
2022/06/08 10:12:28;;;;;;;3.05;1.70;;;;;;;31.02;24.40;100036.47;1750647;82;21447;-63
2022/06/08 10:15:04;;;;;;;3.55;2.05;;;;;;;30.99;24.05;100035.75;1750976;82;21451;-63
2022/06/08 10:17:49;;;;;;;2.90;1.90;;;;;;;30.87;24.49;100032.24;1750753;82;21019;-62
2022/06/08 10:20:51;;;;;;;4.03;1.90;;;;;;;30.84;24.40;100024.44;1750719;82;21090;-62
2022/06/08 10:23:37;;;;;;;2.77;1.75;;;;;;;30.80;24.75;100023.47;1750772;82;21432;-63
2022/06/08 10:26:22;;;;;;;3.50;1.50;;;;;;;30.78;25.00;100018.16;1751080;82;21023;-61
2022/06/08 10:29:05;;;;;;;4.37;2.00;;;;;;;30.71;24.75;100019.28;1750711;82;21027;-62
2022/06/08 10:31:47;;;;;;;8.35;2.25;;;;;;;30.58;24.99;100020.31;1750682;82;21085;-62
2022/06/08 10:34:22;;;;;;;4.55;1.80;;;;;;;30.56;25.04;100012.17;1750705;82;21440;-63
2022/06/08 10:36:58;;;;;;;;;;;;;;;30.54;25.15;100010.23;1726847;82;21123;-61
2022/06/08 10:39:27;;;;;;;4.28;1.70;;;;;;;30.54;25.07;100003.17;1750581;82;20456;-63
2022/06/08 10:42:39;;;;;;;4.75;1.87;;;;;;;30.43;25.14;100006.14;1750829;82;21439;-61
2022/06/08 10:45:28;;;;;;;4.35;1.90;;;;;;;30.40;25.10;100003.16;1750797;82;21080;-61
2022/06/08 10:48:19;;;;;;;27.95;5.72;;;;;;;30.37;25.29;100006.09;1724343;82;20992;-61
2022/06/08 10:50:51;;;;;;;3.90;2.12;;;;;;;30.41;25.24;99997.75;1750717;82;21055;-60
2022/06/08 10:56:33;;;;;;;2.62;1.62;;;;;;;30.45;25.56;99991.08;1737653;82;21024;-61
2022/06/08 10:59:14;;;;;;;4.62;1.90;;;;;;;30.41;25.26;100002.83;1773999;80;21493;-62
2022/06/08 11:02:07;;;;;;;4.30;2.00;;;;;;;30.36;25.00;99997.36;1774198;81;21008;-62
2022/06/08 11:04:43;;;;;;;2.42;1.50;;;;;;;30.36;25.28;99994.53;1774188;80;21063;-63
2022/06/08 11:07:17;;;;;;;8.60;2.35;;;;;;;30.33;25.03;100000.86;1774176;80;21052;-62
2022/06/08 11:09:57;;;;;;;2.45;1.60;;;;;;;30.25;25.00;100000.32;1774249;81;21000;-65
2022/06/08 11:12:35;;;;;;;3.95;1.82;;;;;;;30.21;24.99;99990.28;1774083;81;20982;-62
2022/06/08 11:15:13;;;;;;;4.00;1.80;;;;;;;30.12;25.15;99989.48;1774297;81;21008;-62
2022/06/08 11:17:52;;;;;;;3.02;2.22;;;;;;;30.08;25.66;99993.32;1774198;81;21040;-63
2022/06/08 11:20:35;;;;;;;3.90;3.22;;;;;;;30.04;26.01;99993.75;1774191;81;21013;-64
2022/06/08 11:23:27;;;;;;;5.95;2.17;;;;;;;30.04;25.97;99986.69;1774324;79;21832;-62
2022/06/08 11:26:23;;;;;;;6.08;2.10;;;;;;;30.01;25.83;99990.16;1788098;80;21083;-61
2022/06/08 11:29:02;;;;;;;4.40;1.80;;;;;;;30.05;25.65;99988.34;1774426;81;21024;-60
2022/06/08 11:31:38;;;;;;;4.05;2.12;;;;;;;30.05;25.65;99988.34;1769255;79;20988;-63
2022/06/08 11:34:31;;;;;;;2.20;1.65;;;;;;;30.09;25.54;99978.03;1774200;81;21044;-61
2022/06/08 11:37:26;;;;;;;4.78;1.87;;;;;;;30.13;25.26;99980.42;1774381;81;21039;-63
2022/06/08 11:40:13;;;;;;;5.05;1.87;;;;;;;30.12;25.28;99982.42;1773934;81;21055;-61
2022/06/08 11:42:59;;;;;;;3.20;1.82;;;;;;;30.03;25.36;99970.91;1774191;80;21024;-61
2022/06/08 11:45:47;;;;;;;4.80;1.62;;;;;;;30.04;25.41;99974.80;1774411;80;21040;-61
2022/06/08 11:48:23;;;;;;;4.20;1.60;;;;;;;30.02;25.35;99981.96;1774043;80;21012;-64
2022/06/08 11:50:55;;;;;;;4.03;1.60;;;;;;;29.91;24.87;99975.23;1774009;81;21032;-63
2022/06/08 11:53:39;;;;;;;3.67;1.57;;;;;;;29.83;24.42;99971.81;1774196;80;21071;-61
2022/06/08 11:56:35;;;;;;;7.33;1.60;;;;;;;29.76;24.08;99958.80;1774490;81;21017;-63
2022/06/08 11:59:05;;;;;;;4.65;1.40;;;;;;;29.76;24.08;99958.80;1738417;80;21067;-63
2022/06/08 12:01:42;;;;;;;7.72;2.37;;;;;;;29.78;24.37;99962.11;1806047;79;21063;-62
2022/06/08 12:04:17;;;;;;;2.08;1.50;;;;;;;29.78;25.05;99956.47;1738698;82;21483;-63
2022/06/08 12:06:47;;;;;;;2.70;1.47;;;;;;;29.75;25.11;99952.91;1805836;79;21487;-62
2022/06/08 12:09:23;;;;;;;16.02;3.47;;;;;;;29.74;25.07;99956.89;1806010;79;20984;-62
2022/06/08 12:11:55;;;;;;;3.42;1.70;;;;;;;29.70;24.95;99953.08;1737252;82;21440;-63
2022/06/08 12:14:35;;;;;;;2.20;1.37;;;;;;;29.75;25.45;99939.36;1805845;79;21521;-63
2022/06/08 12:17:16;;;;;;;5.47;1.65;;;;;;;29.75;25.45;99939.36;1805981;79;21035;-62
2022/06/08 12:19:55;;;;;;;4.90;1.75;;;;;;;29.82;24.90;99948.14;1736676;82;21156;-62
2022/06/08 12:22:27;;;;;;;5.25;1.60;;;;;;;29.93;24.36;99955.95;1806008;79;21071;-62
2022/06/08 12:25:21;;;;;;;4.95;1.95;;;;;;;29.93;24.36;99955.95;1737337;82;21051;-61
2022/06/08 12:28:05;;;;;;;1.60;1.30;;;;;;;29.90;24.42;99954.34;1805331;79;21067;-62
2022/06/08 12:30:48;;;;;;;4.75;1.80;;;;;;;29.91;24.21;99952.63;1737057;82;21134;-63
2022/06/08 12:33:25;;;;;;;5.50;1.87;;;;;;;29.88;24.27;99950.45;1786061;79;21083;-63